Terminal Aerodrome Forecast
Issued by NWS

Home | Current Version | Previous Version | Text Only | Print | Product List | Glossary On
Versions: 1 2 3 4 5 6 7 8 9 10 11 12 13 14 15 16 17
000
FTUS43 KEAX 132000 AAB
TAFSTJ
TAF AMD
KSTJ 132016Z 1320/1418 01016G25KT 2SM -TSRA OVC009CB
     FM132130 35022G32KT 4SM -RA VCTS OVC015CB
     FM140100 35020G30KT P6SM VCSH OVC015
     FM140800 35020G30KT P6SM OVC015=

USA.gov is the U.S. government's official web portal to all federal, state and local government web resources and services.